Time;durP1;ratioP1;P1;durP2;ratioP2;P2;SDS_P1;SDS_P2;PMS_P1;PMS_P2;Temp;Humidity;BMP_temperature;BMP_pressure;BME280_temperature;BME280_humidity;BME280_pressure;Samples;Min_cycle;Max_cycle;Signal;HPM_P1;HPM_P2
2020/09/03 00:00:37;;;;;;;3.5;3.2;;;;;;;11.54;100;95583.92;;;;
2020/09/03 00:01:37;;;;;;;3.5;3.2;;;;;;;11.54;100;95583.92;;;;
2020/09/03 00:02:37;;;;;;;3.5;3.2;;;;;;;11.54;100;95583.92;;;;
2020/09/03 00:03:38;;;;;;;3.5;3.2;;;;;;;11.54;100;95583.92;;;;
2020/09/03 00:04:38;;;;;;;3.5;3.2;;;;;;;11.54;100;95583.92;;;;
2020/09/03 00:05:39;;;;;;;3.5;3.2;;;;;;;11.54;100;95583.92;;;;
2020/09/03 00:06:39;;;;;;;3.5;3.2;;;;;;;11.54;100;95583.92;;;;
2020/09/03 00:07:40;;;;;;;3.5;3.2;;;;;;;11.54;100;95583.92;;;;
2020/09/03 00:08:41;;;;;;;3.5;3.2;;;;;;;11.54;100;95583.92;;;;
2020/09/03 00:09:42;;;;;;;3.45;3.15;;;;;;;11.46;100;95596.84;;;;
2020/09/03 00:10:42;;;;;;;3.45;3.15;;;;;;;11.46;100;95596.84;;;;
2020/09/03 00:11:43;;;;;;;3.45;3.15;;;;;;;11.46;100;95596.84;;;;
2020/09/03 00:12:43;;;;;;;3.45;3.15;;;;;;;11.46;100;95596.84;;;;
2020/09/03 00:13:44;;;;;;;3.45;3.15;;;;;;;11.46;100;95596.84;;;;
2020/09/03 00:14:44;;;;;;;3.45;3.15;;;;;;;11.46;100;95596.84;;;;
2020/09/03 00:15:45;;;;;;;3.45;3.15;;;;;;;11.46;100;95596.84;;;;
2020/09/03 00:16:45;;;;;;;3.45;3.15;;;;;;;11.46;100;95596.84;;;;
2020/09/03 00:17:46;;;;;;;3.45;3.15;;;;;;;11.46;100;95596.84;;;;
2020/09/03 00:18:52;;;;;;;3.45;3.15;;;;;;;11.46;100;95596.84;;;;
2020/09/03 00:19:53;;;;;;;3.6;3.3;;;;;;;11.4;100;95587.5;;;;
2020/09/03 00:20:53;;;;;;;3.6;3.3;;;;;;;11.4;100;95587.5;;;;
2020/09/03 00:21:54;;;;;;;3.6;3.3;;;;;;;11.4;100;95587.5;;;;
2020/09/03 00:22:54;;;;;;;3.6;3.3;;;;;;;11.4;100;95587.5;;;;
2020/09/03 00:23:57;;;;;;;3.6;3.3;;;;;;;11.4;100;95587.5;;;;
2020/09/03 00:24:57;;;;;;;3.6;3.3;;;;;;;11.4;100;95587.5;;;;
2020/09/03 00:25:58;;;;;;;3.6;3.3;;;;;;;11.4;100;95587.5;;;;
2020/09/03 00:26:58;;;;;;;3.6;3.3;;;;;;;11.4;100;95587.5;;;;
2020/09/03 00:27:59;;;;;;;3.6;3.3;;;;;;;11.4;100;95587.5;;;;
2020/09/03 00:28:59;;;;;;;3.6;3.3;;;;;;;11.4;100;95587.5;;;;
2020/09/03 00:30:00;;;;;;;3.6;3.3;;;;;;;11.4;100;95587.5;;;;
2020/09/03 00:31:00;;;;;;;3.6;3.299999;;;;;;;11.24;100;95587.24;;;;
2020/09/03 00:32:01;;;;;;;3.6;3.299999;;;;;;;11.24;100;95587.24;;;;
2020/09/03 00:33:01;;;;;;;3.6;3.299999;;;;;;;11.24;100;95587.24;;;;
2020/09/03 00:34:02;;;;;;;3.6;3.299999;;;;;;;11.24;100;95587.24;;;;
2020/09/03 00:35:02;;;;;;;3.6;3.299999;;;;;;;11.24;100;95587.24;;;;
2020/09/03 00:36:03;;;;;;;3.6;3.299999;;;;;;;11.24;100;95587.24;;;;
2020/09/03 00:37:03;;;;;;;3.6;3.299999;;;;;;;11.24;100;95587.24;;;;
2020/09/03 00:38:04;;;;;;;3.6;3.299999;;;;;;;11.24;100;95587.24;;;;
2020/09/03 00:39:05;;;;;;;3.6;3.299999;;;;;;;11.24;100;95587.24;;;;
2020/09/03 00:40:05;;;;;;;3.6;3.299999;;;;;;;11.24;100;95587.24;;;;
2020/09/03 00:41:06;;;;;;;3.5;3.2;;;;;;;11.16;100;95587.05;;;;
2020/09/03 00:42:06;;;;;;;3.5;3.2;;;;;;;11.16;100;95587.05;;;;
2020/09/03 00:43:07;;;;;;;3.5;3.2;;;;;;;11.16;100;95587.05;;;;
2020/09/03 00:44:07;;;;;;;3.5;3.2;;;;;;;11.16;100;95587.05;;;;
2020/09/03 00:45:08;;;;;;;3.5;3.2;;;;;;;11.16;100;95587.05;;;;
2020/09/03 00:46:08;;;;;;;3.5;3.2;;;;;;;11.16;100;95587.05;;;;
2020/09/03 00:47:09;;;;;;;3.5;3.2;;;;;;;11.16;100;95587.05;;;;
2020/09/03 00:48:09;;;;;;;3.5;3.2;;;;;;;11.16;100;95587.05;;;;
2020/09/03 00:49:10;;;;;;;3.5;3.2;;;;;;;11.16;100;95587.05;;;;
2020/09/03 00:50:11;;;;;;;3.5;3.2;;;;;;;11.16;100;95587.05;;;;
2020/09/03 00:51:11;;;;;;;3.5;3.2;;;;;;;11.16;100;95587.05;;;;
2020/09/03 00:52:12;;;;;;;4.4;3.3;;;;;;;11.21;100;95596.62;;;;
2020/09/03 00:53:15;;;;;;;4.4;3.3;;;;;;;11.21;100;95596.62;;;;
2020/09/03 00:54:18;;;;;;;4.4;3.3;;;;;;;11.21;100;95596.62;;;;
2020/09/03 00:55:18;;;;;;;4.4;3.3;;;;;;;11.21;100;95596.62;;;;
2020/09/03 00:56:45;;;;;;;4.4;3.3;;;;;;;11.21;100;95596.62;;;;
2020/09/03 00:57:46;;;;;;;4.4;3.3;;;;;;;11.21;100;95596.62;;;;
2020/09/03 00:58:51;;;;;;;4.4;3.3;;;;;;;11.21;100;95596.62;;;;
2020/09/03 00:59:52;;;;;;;4.4;3.3;;;;;;;11.21;100;95596.62;;;;
2020/09/03 01:00:52;;;;;;;4.4;3.3;;;;;;;11.21;100;95596.62;;;;
2020/09/03 01:01:53;;;;;;;4.4;3.3;;;;;;;11.21;100;95596.62;;;;
2020/09/03 01:02:54;;;;;;;3.75;3.3;;;;;;;11.12;100;95589.08;;;;
2020/09/03 01:03:55;;;;;;;3.75;3.3;;;;;;;11.12;100;95589.08;;;;
2020/09/03 01:04:56;;;;;;;3.75;3.3;;;;;;;11.12;100;95589.08;;;;
2020/09/03 01:05:56;;;;;;;3.75;3.3;;;;;;;11.12;100;95589.08;;;;
2020/09/03 01:06:57;;;;;;;3.75;3.3;;;;;;;11.12;100;95589.08;;;;
2020/09/03 01:07:58;;;;;;;3.75;3.3;;;;;;;11.12;100;95589.08;;;;
2020/09/03 01:08:59;;;;;;;3.75;3.3;;;;;;;11.12;100;95589.08;;;;
2020/09/03 01:10:00;;;;;;;3.75;3.3;;;;;;;11.12;100;95589.08;;;;
2020/09/03 01:11:01;;;;;;;3.75;3.3;;;;;;;11.12;100;95589.08;;;;
2020/09/03 01:12:01;;;;;;;3.75;3.3;;;;;;;11.12;100;95589.08;;;;
2020/09/03 01:13:02;;;;;;;3.15;2.95;;;;;;;11.03;100;95589.01;;;;
2020/09/03 01:14:02;;;;;;;3.15;2.95;;;;;;;11.03;100;95589.01;;;;
2020/09/03 01:15:02;;;;;;;3.15;2.95;;;;;;;11.03;100;95589.01;;;;
2020/09/03 01:16:04;;;;;;;3.15;2.95;;;;;;;11.03;100;95589.01;;;;
2020/09/03 01:17:04;;;;;;;3.15;2.95;;;;;;;11.03;100;95589.01;;;;
2020/09/03 01:18:04;;;;;;;3.15;2.95;;;;;;;11.03;100;95589.01;;;;
2020/09/03 01:19:05;;;;;;;3.15;2.95;;;;;;;11.03;100;95589.01;;;;
2020/09/03 01:20:05;;;;;;;3.15;2.95;;;;;;;11.03;100;95589.01;;;;
2020/09/03 01:21:06;;;;;;;3.15;2.95;;;;;;;11.03;100;95589.01;;;;
2020/09/03 01:22:07;;;;;;;3.15;2.95;;;;;;;11.03;100;95589.01;;;;
2020/09/03 01:23:07;;;;;;;3.15;2.95;;;;;;;11.03;100;95589.01;;;;
2020/09/03 01:24:08;;;;;;;3.85;3.55;;;;;;;10.95;100;95602.03;;;;
2020/09/03 01:25:08;;;;;;;3.85;3.55;;;;;;;10.95;100;95602.03;;;;
2020/09/03 01:26:08;;;;;;;3.85;3.55;;;;;;;10.95;100;95602.03;;;;
2020/09/03 01:27:09;;;;;;;3.85;3.55;;;;;;;10.95;100;95602.03;;;;
2020/09/03 01:28:09;;;;;;;3.85;3.55;;;;;;;10.95;100;95602.03;;;;
2020/09/03 01:29:10;;;;;;;3.85;3.55;;;;;;;10.95;100;95602.03;;;;
2020/09/03 01:30:10;;;;;;;3.85;3.55;;;;;;;10.95;100;95602.03;;;;
2020/09/03 01:31:11;;;;;;;3.85;3.55;;;;;;;10.95;100;95602.03;;;;
2020/09/03 01:32:11;;;;;;;3.85;3.55;;;;;;;10.95;100;95602.03;;;;
2020/09/03 01:33:12;;;;;;;3.85;3.55;;;;;;;10.95;100;95602.03;;;;
2020/09/03 01:34:12;;;;;;;3.6;3.3;;;;;;;10.93;100;95607.67;;;;
2020/09/03 01:35:13;;;;;;;3.6;3.3;;;;;;;10.93;100;95607.67;;;;
2020/09/03 01:36:13;;;;;;;3.6;3.3;;;;;;;10.93;100;95607.67;;;;
2020/09/03 01:37:16;;;;;;;3.6;3.3;;;;;;;10.93;100;95607.67;;;;
2020/09/03 01:38:16;;;;;;;3.6;3.3;;;;;;;10.93;100;95607.67;;;;
2020/09/03 01:39:17;;;;;;;3.6;3.3;;;;;;;10.93;100;95607.67;;;;
2020/09/03 01:40:17;;;;;;;3.6;3.3;;;;;;;10.93;100;95607.67;;;;
2020/09/03 01:41:18;;;;;;;3.6;3.3;;;;;;;10.93;100;95607.67;;;;
2020/09/03 01:42:18;;;;;;;3.6;3.3;;;;;;;10.93;100;95607.67;;;;
2020/09/03 01:43:19;;;;;;;3.6;3.3;;;;;;;10.93;100;95607.67;;;;
2020/09/03 01:44:19;;;;;;;3.6;3.3;;;;;;;10.93;100;95607.67;;;;
2020/09/03 01:45:19;;;;;;;3.35;3.05;;;;;;;11.1;100;95605.66;;;;
2020/09/03 01:46:20;;;;;;;3.35;3.05;;;;;;;11.1;100;95605.66;;;;
2020/09/03 01:47:20;;;;;;;3.35;3.05;;;;;;;11.1;100;95605.66;;;;
2020/09/03 01:48:21;;;;;;;3.35;3.05;;;;;;;11.1;100;95605.66;;;;
2020/09/03 01:49:21;;;;;;;3.35;3.05;;;;;;;11.1;100;95605.66;;;;
2020/09/03 01:50:22;;;;;;;3.35;3.05;;;;;;;11.1;100;95605.66;;;;
2020/09/03 01:51:22;;;;;;;3.35;3.05;;;;;;;11.1;100;95605.66;;;;
2020/09/03 01:52:23;;;;;;;3.35;3.05;;;;;;;11.1;100;95605.66;;;;
2020/09/03 01:53:23;;;;;;;3.35;3.05;;;;;;;11.1;100;95605.66;;;;
2020/09/03 01:54:23;;;;;;;3.35;3.05;;;;;;;11.1;100;95605.66;;;;
2020/09/03 01:55:24;;;;;;;3.35;3.05;;;;;;;11.1;100;95605.66;;;;
2020/09/03 01:56:24;;;;;;;3.7;3.25;;;;;;;11.23;100;95588.28;;;;
2020/09/03 01:57:25;;;;;;;3.7;3.25;;;;;;;11.23;100;95588.28;;;;
2020/09/03 01:58:25;;;;;;;3.7;3.25;;;;;;;11.23;100;95588.28;;;;
2020/09/03 01:59:26;;;;;;;3.7;3.25;;;;;;;11.23;100;95588.28;;;;
2020/09/03 02:00:26;;;;;;;3.7;3.25;;;;;;;11.23;100;95588.28;;;;
2020/09/03 02:01:27;;;;;;;3.7;3.25;;;;;;;11.23;100;95588.28;;;;
2020/09/03 02:02:27;;;;;;;3.7;3.25;;;;;;;11.23;100;95588.28;;;;
2020/09/03 02:03:28;;;;;;;3.7;3.25;;;;;;;11.23;100;95588.28;;;;
2020/09/03 02:04:28;;;;;;;3.7;3.25;;;;;;;11.23;100;95588.28;;;;
2020/09/03 02:05:29;;;;;;;3.7;3.25;;;;;;;11.23;100;95588.28;;;;
2020/09/03 02:06:29;;;;;;;3.4;3.1;;;;;;;11.25;100;95576.29;;;;
2020/09/03 02:07:30;;;;;;;3.4;3.1;;;;;;;11.25;100;95576.29;;;;
2020/09/03 02:08:30;;;;;;;3.4;3.1;;;;;;;11.25;100;95576.29;;;;
2020/09/03 02:09:31;;;;;;;3.4;3.1;;;;;;;11.25;100;95576.29;;;;
2020/09/03 02:10:31;;;;;;;3.4;3.1;;;;;;;11.25;100;95576.29;;;;
2020/09/03 02:11:31;;;;;;;3.4;3.1;;;;;;;11.25;100;95576.29;;;;
2020/09/03 02:12:32;;;;;;;3.4;3.1;;;;;;;11.25;100;95576.29;;;;
2020/09/03 02:13:35;;;;;;;3.4;3.1;;;;;;;11.25;100;95576.29;;;;
2020/09/03 02:14:36;;;;;;;3.4;3.1;;;;;;;11.25;100;95576.29;;;;
2020/09/03 02:15:36;;;;;;;3.4;3.1;;;;;;;11.25;100;95576.29;;;;
2020/09/03 02:16:37;;;;;;;3.4;3.1;;;;;;;11.25;100;95576.29;;;;
2020/09/03 02:17:37;;;;;;;3.149999;2.95;;;;;;;11.22;100;95586.65;;;;
2020/09/03 02:18:38;;;;;;;3.149999;2.95;;;;;;;11.22;100;95586.65;;;;
2020/09/03 02:19:38;;;;;;;3.149999;2.95;;;;;;;11.22;100;95586.65;;;;
2020/09/03 02:20:39;;;;;;;3.149999;2.95;;;;;;;11.22;100;95586.65;;;;
2020/09/03 02:21:39;;;;;;;3.149999;2.95;;;;;;;11.22;100;95586.65;;;;
2020/09/03 02:22:40;;;;;;;3.149999;2.95;;;;;;;11.22;100;95586.65;;;;
2020/09/03 02:23:41;;;;;;;3.149999;2.95;;;;;;;11.22;100;95586.65;;;;
2020/09/03 02:24:41;;;;;;;3.149999;2.95;;;;;;;11.22;100;95586.65;;;;
2020/09/03 02:25:42;;;;;;;3.149999;2.95;;;;;;;11.22;100;95586.65;;;;
2020/09/03 02:26:42;;;;;;;3.149999;2.95;;;;;;;11.22;100;95586.65;;;;
2020/09/03 02:27:43;;;;;;;3.6;3.3;;;;;;;11.1;100;95583.91;;;;
2020/09/03 02:28:43;;;;;;;3.6;3.3;;;;;;;11.1;100;95583.91;;;;
2020/09/03 02:29:44;;;;;;;3.6;3.3;;;;;;;11.1;100;95583.91;;;;
2020/09/03 02:30:44;;;;;;;3.6;3.3;;;;;;;11.1;100;95583.91;;;;
2020/09/03 02:31:45;;;;;;;3.6;3.3;;;;;;;11.1;100;95583.91;;;;
2020/09/03 02:32:45;;;;;;;3.6;3.3;;;;;;;11.1;100;95583.91;;;;
2020/09/03 02:33:45;;;;;;;3.6;3.3;;;;;;;11.1;100;95583.91;;;;
2020/09/03 02:34:46;;;;;;;3.6;3.3;;;;;;;11.1;100;95583.91;;;;
2020/09/03 02:35:47;;;;;;;3.6;3.3;;;;;;;11.1;100;95583.91;;;;
2020/09/03 02:36:47;;;;;;;3.6;3.3;;;;;;;11.1;100;95583.91;;;;
2020/09/03 02:37:48;;;;;;;3.6;3.3;;;;;;;11.1;100;95583.91;;;;
2020/09/03 02:38:48;;;;;;;3.6;3.299999;;;;;;;11;100;95588.65;;;;
2020/09/03 02:39:49;;;;;;;3.6;3.299999;;;;;;;11;100;95588.65;;;;
2020/09/03 02:40:49;;;;;;;3.6;3.299999;;;;;;;11;100;95588.65;;;;
2020/09/03 02:41:50;;;;;;;3.6;3.299999;;;;;;;11;100;95588.65;;;;
2020/09/03 02:42:50;;;;;;;3.6;3.299999;;;;;;;11;100;95588.65;;;;
2020/09/03 02:43:51;;;;;;;3.6;3.299999;;;;;;;11;100;95588.65;;;;
2020/09/03 02:44:51;;;;;;;3.6;3.299999;;;;;;;11;100;95588.65;;;;
2020/09/03 02:45:52;;;;;;;3.6;3.299999;;;;;;;11;100;95588.65;;;;
2020/09/03 02:46:52;;;;;;;3.6;3.299999;;;;;;;11;100;95588.65;;;;
2020/09/03 02:47:53;;;;;;;3.6;3.299999;;;;;;;11;100;95588.65;;;;
2020/09/03 02:48:53;;;;;;;3.1;2.9;;;;;;;10.87;100;95600.47;;;;
2020/09/03 02:49:53;;;;;;;3.1;2.9;;;;;;;10.87;100;95600.47;;;;
2020/09/03 02:50:54;;;;;;;3.1;2.9;;;;;;;10.87;100;95600.47;;;;
2020/09/03 02:51:54;;;;;;;3.1;2.9;;;;;;;10.87;100;95600.47;;;;
2020/09/03 02:52:55;;;;;;;3.1;2.9;;;;;;;10.87;100;95600.47;;;;
2020/09/03 02:53:55;;;;;;;3.1;2.9;;;;;;;10.87;100;95600.47;;;;
2020/09/03 02:54:56;;;;;;;3.1;2.9;;;;;;;10.87;100;95600.47;;;;
2020/09/03 02:55:56;;;;;;;3.1;2.9;;;;;;;10.87;100;95600.47;;;;
2020/09/03 02:56:57;;;;;;;3.1;2.9;;;;;;;10.87;100;95600.47;;;;
2020/09/03 02:57:58;;;;;;;3.1;2.9;;;;;;;10.87;100;95600.47;;;;
2020/09/03 02:58:58;;;;;;;3.1;2.9;;;;;;;10.87;100;95600.47;;;;
2020/09/03 02:59:59;;;;;;;3.5;3.15;;;;;;;10.73;100;95601.82;;;;
2020/09/03 03:01:00;;;;;;;3.5;3.15;;;;;;;10.73;100;95601.82;;;;
2020/09/03 03:02:00;;;;;;;3.5;3.15;;;;;;;10.73;100;95601.82;;;;
2020/09/03 03:03:01;;;;;;;3.5;3.15;;;;;;;10.73;100;95601.82;;;;
2020/09/03 03:04:01;;;;;;;3.5;3.15;;;;;;;10.73;100;95601.82;;;;
2020/09/03 03:05:02;;;;;;;3.5;3.15;;;;;;;10.73;100;95601.82;;;;
2020/09/03 03:06:02;;;;;;;3.5;3.15;;;;;;;10.73;100;95601.82;;;;
2020/09/03 03:07:03;;;;;;;3.5;3.15;;;;;;;10.73;100;95601.82;;;;
2020/09/03 03:08:03;;;;;;;3.5;3.15;;;;;;;10.73;100;95601.82;;;;
2020/09/03 03:09:04;;;;;;;3.5;3.15;;;;;;;10.73;100;95601.82;;;;
2020/09/03 03:10:04;;;;;;;3.5;3.15;;;;;;;10.73;100;95601.82;;;;
2020/09/03 03:11:05;;;;;;;5.6;3.35;;;;;;;10.56;100;95606.09;;;;
2020/09/03 03:12:05;;;;;;;5.6;3.35;;;;;;;10.56;100;95606.09;;;;
2020/09/03 03:13:06;;;;;;;5.6;3.35;;;;;;;10.56;100;95606.09;;;;
2020/09/03 03:14:07;;;;;;;5.6;3.35;;;;;;;10.56;100;95606.09;;;;
2020/09/03 03:15:07;;;;;;;5.6;3.35;;;;;;;10.56;100;95606.09;;;;
2020/09/03 03:16:08;;;;;;;5.6;3.35;;;;;;;10.56;100;95606.09;;;;
2020/09/03 03:17:08;;;;;;;5.6;3.35;;;;;;;10.56;100;95606.09;;;;
2020/09/03 03:18:08;;;;;;;5.6;3.35;;;;;;;10.56;100;95606.09;;;;
2020/09/03 03:19:09;;;;;;;5.6;3.35;;;;;;;10.56;100;95606.09;;;;
2020/09/03 03:20:09;;;;;;;5.6;3.35;;;;;;;10.56;100;95606.09;;;;
2020/09/03 03:21:10;;;;;;;3.35;3.15;;;;;;;10.43;100;95598.71;;;;
2020/09/03 03:22:12;;;;;;;3.35;3.15;;;;;;;10.43;100;95598.71;;;;
2020/09/03 03:23:12;;;;;;;3.35;3.15;;;;;;;10.43;100;95598.71;;;;
2020/09/03 03:24:13;;;;;;;3.35;3.15;;;;;;;10.43;100;95598.71;;;;
2020/09/03 03:25:13;;;;;;;3.35;3.15;;;;;;;10.43;100;95598.71;;;;
2020/09/03 03:26:14;;;;;;;3.35;3.15;;;;;;;10.43;100;95598.71;;;;
2020/09/03 03:27:14;;;;;;;3.35;3.15;;;;;;;10.43;100;95598.71;;;;
2020/09/03 03:28:15;;;;;;;3.35;3.15;;;;;;;10.43;100;95598.71;;;;
2020/09/03 03:29:16;;;;;;;3.35;3.15;;;;;;;10.43;100;95598.71;;;;
2020/09/03 03:30:16;;;;;;;3.35;3.15;;;;;;;10.43;100;95598.71;;;;
2020/09/03 03:31:17;;;;;;;3.35;3.15;;;;;;;10.43;100;95598.71;;;;
2020/09/03 03:32:17;;;;;;;3.45;3.2;;;;;;;10.28;100;95608.95;;;;
2020/09/03 03:33:17;;;;;;;3.45;3.2;;;;;;;10.28;100;95608.95;;;;
2020/09/03 03:34:18;;;;;;;3.45;3.2;;;;;;;10.28;100;95608.95;;;;
2020/09/03 03:35:18;;;;;;;3.45;3.2;;;;;;;10.28;100;95608.95;;;;
2020/09/03 03:36:19;;;;;;;3.45;3.2;;;;;;;10.28;100;95608.95;;;;
2020/09/03 03:37:19;;;;;;;3.45;3.2;;;;;;;10.28;100;95608.95;;;;
2020/09/03 03:38:20;;;;;;;3.45;3.2;;;;;;;10.28;100;95608.95;;;;
2020/09/03 03:39:20;;;;;;;3.45;3.2;;;;;;;10.28;100;95608.95;;;;
2020/09/03 03:40:21;;;;;;;3.45;3.2;;;;;;;10.28;100;95608.95;;;;
2020/09/03 03:41:21;;;;;;;3.45;3.2;;;;;;;10.28;100;95608.95;;;;
2020/09/03 03:42:22;;;;;;;3.95;3.299999;;;;;;;10.13;100;95613.89;;;;
2020/09/03 03:43:22;;;;;;;3.95;3.299999;;;;;;;10.13;100;95613.89;;;;
2020/09/03 03:44:23;;;;;;;3.95;3.299999;;;;;;;10.13;100;95613.89;;;;
2020/09/03 03:45:24;;;;;;;3.95;3.299999;;;;;;;10.13;100;95613.89;;;;
2020/09/03 03:46:24;;;;;;;3.95;3.299999;;;;;;;10.13;100;95613.89;;;;
2020/09/03 03:47:25;;;;;;;3.95;3.299999;;;;;;;10.13;100;95613.89;;;;
2020/09/03 03:48:25;;;;;;;3.95;3.299999;;;;;;;10.13;100;95613.89;;;;
2020/09/03 03:49:26;;;;;;;3.95;3.299999;;;;;;;10.13;100;95613.89;;;;
2020/09/03 03:50:26;;;;;;;3.95;3.299999;;;;;;;10.13;100;95613.89;;;;
2020/09/03 03:51:26;;;;;;;3.95;3.299999;;;;;;;10.13;100;95613.89;;;;
2020/09/03 03:52:27;;;;;;;3.95;3.299999;;;;;;;10.13;100;95613.89;;;;
2020/09/03 03:53:27;;;;;;;4;3.25;;;;;;;10.06;100;95619.86;;;;
2020/09/03 03:54:28;;;;;;;4;3.25;;;;;;;10.06;100;95619.86;;;;
2020/09/03 03:55:29;;;;;;;4;3.25;;;;;;;10.06;100;95619.86;;;;
2020/09/03 03:56:29;;;;;;;4;3.25;;;;;;;10.06;100;95619.86;;;;
2020/09/03 03:57:30;;;;;;;4;3.25;;;;;;;10.06;100;95619.86;;;;
2020/09/03 03:58:30;;;;;;;4;3.25;;;;;;;10.06;100;95619.86;;;;
2020/09/03 03:59:31;;;;;;;4;3.25;;;;;;;10.06;100;95619.86;;;;
2020/09/03 04:00:31;;;;;;;4;3.25;;;;;;;10.06;100;95619.86;;;;
2020/09/03 04:01:32;;;;;;;4;3.25;;;;;;;10.06;100;95619.86;;;;
2020/09/03 04:02:33;;;;;;;4;3.25;;;;;;;10.06;100;95619.86;;;;
2020/09/03 04:03:33;;;;;;;4.05;3.2;;;;;;;10.04;100;95632.74;;;;
2020/09/03 04:04:35;;;;;;;4.05;3.2;;;;;;;10.04;100;95632.74;;;;
2020/09/03 04:05:35;;;;;;;4.05;3.2;;;;;;;10.04;100;95632.74;;;;
2020/09/03 04:06:36;;;;;;;4.05;3.2;;;;;;;10.04;100;95632.74;;;;
2020/09/03 04:07:36;;;;;;;4.05;3.2;;;;;;;10.04;100;95632.74;;;;
2020/09/03 04:08:37;;;;;;;4.05;3.2;;;;;;;10.04;100;95632.74;;;;
2020/09/03 04:09:37;;;;;;;4.05;3.2;;;;;;;10.04;100;95632.74;;;;
2020/09/03 04:10:38;;;;;;;4.05;3.2;;;;;;;10.04;100;95632.74;;;;
2020/09/03 04:11:38;;;;;;;4.05;3.2;;;;;;;10.04;100;95632.74;;;;
2020/09/03 04:12:41;;;;;;;4.05;3.2;;;;;;;10.04;100;95632.74;;;;
2020/09/03 04:13:42;;;;;;;4.05;3.2;;;;;;;10.04;100;95632.74;;;;
2020/09/03 04:14:44;;;;;;;4.55;3.2;;;;;;;10.03;100;95645.95;;;;
2020/09/03 04:15:47;;;;;;;4.55;3.2;;;;;;;10.03;100;95645.95;;;;
2020/09/03 04:16:48;;;;;;;4.55;3.2;;;;;;;10.03;100;95645.95;;;;
2020/09/03 04:17:51;;;;;;;4.55;3.2;;;;;;;10.03;100;95645.95;;;;
2020/09/03 04:18:55;;;;;;;4.55;3.2;;;;;;;10.03;100;95645.95;;;;
2020/09/03 04:19:57;;;;;;;4.55;3.2;;;;;;;10.03;100;95645.95;;;;
2020/09/03 04:21:00;;;;;;;4.55;3.2;;;;;;;10.03;100;95645.95;;;;
2020/09/03 04:22:01;;;;;;;4.55;3.2;;;;;;;10.03;100;95645.95;;;;
2020/09/03 04:23:01;;;;;;;4.55;3.2;;;;;;;10.03;100;95645.95;;;;
2020/09/03 04:24:02;;;;;;;4.55;3.2;;;;;;;10.03;100;95645.95;;;;
2020/09/03 04:25:03;;;;;;;3.35;2.95;;;;;;;10.13;100;95653.15;;;;
2020/09/03 04:26:05;;;;;;;3.35;2.95;;;;;;;10.13;100;95653.15;;;;
2020/09/03 04:27:06;;;;;;;3.35;2.95;;;;;;;10.13;100;95653.15;;;;
2020/09/03 04:28:08;;;;;;;3.35;2.95;;;;;;;10.13;100;95653.15;;;;
2020/09/03 04:29:09;;;;;;;3.35;2.95;;;;;;;10.13;100;95653.15;;;;
2020/09/03 04:30:09;;;;;;;3.35;2.95;;;;;;;10.13;100;95653.15;;;;
2020/09/03 04:31:53;;;;;;;3.35;2.95;;;;;;;10.13;100;95653.15;;;;
2020/09/03 04:33:04;;;;;;;3.35;2.95;;;;;;;10.13;100;95653.15;;;;
2020/09/03 04:34:06;;;;;;;3.35;2.95;;;;;;;10.13;100;95653.15;;;;
2020/09/03 04:35:37;;;;;;;3.5;3.2;;;;;;;10.1;100;95664.26;;;;
2020/09/03 04:36:42;;;;;;;3.5;3.2;;;;;;;10.1;100;95664.26;;;;
2020/09/03 04:37:46;;;;;;;3.5;3.2;;;;;;;10.1;100;95664.26;;;;
2020/09/03 04:38:54;;;;;;;3.5;3.2;;;;;;;10.1;100;95664.26;;;;
2020/09/03 04:39:54;;;;;;;3.5;3.2;;;;;;;10.1;100;95664.26;;;;
2020/09/03 04:40:58;;;;;;;3.5;3.2;;;;;;;10.1;100;95664.26;;;;
2020/09/03 04:42:31;;;;;;;3.5;3.2;;;;;;;10.1;100;95664.26;;;;
2020/09/03 04:43:33;;;;;;;3.5;3.2;;;;;;;10.1;100;95664.26;;;;
2020/09/03 04:44:42;;;;;;;3.5;3.2;;;;;;;10.1;100;95664.26;;;;
2020/09/03 04:45:43;;;;;;;3.5;3.2;;;;;;;10.1;100;95664.26;;;;
2020/09/03 04:46:43;;;;;;;3.5;3.2;;;;;;;10.06;100;95675.16;;;;
2020/09/03 04:47:44;;;;;;;3.5;3.2;;;;;;;10.06;100;95675.16;;;;
2020/09/03 04:48:44;;;;;;;3.5;3.2;;;;;;;10.06;100;95675.16;;;;
2020/09/03 04:49:45;;;;;;;3.5;3.2;;;;;;;10.06;100;95675.16;;;;
2020/09/03 04:50:45;;;;;;;3.5;3.2;;;;;;;10.06;100;95675.16;;;;
2020/09/03 04:51:46;;;;;;;3.5;3.2;;;;;;;10.06;100;95675.16;;;;
2020/09/03 04:52:46;;;;;;;3.5;3.2;;;;;;;10.06;100;95675.16;;;;
2020/09/03 04:53:47;;;;;;;3.5;3.2;;;;;;;10.06;100;95675.16;;;;
2020/09/03 04:54:47;;;;;;;3.5;3.2;;;;;;;10.06;100;95675.16;;;;
2020/09/03 04:56:03;;;;;;;3.5;3.2;;;;;;;10.06;100;95675.16;;;;
2020/09/03 04:57:29;;;;;;;3.25;3.05;;;;;;;10.1;100;95681.91;;;;
2020/09/03 04:58:45;;;;;;;3.25;3.05;;;;;;;10.1;100;95681.91;;;;
2020/09/03 04:59:45;;;;;;;3.25;3.05;;;;;;;10.1;100;95681.91;;;;
2020/09/03 05:00:45;;;;;;;3.25;3.05;;;;;;;10.1;100;95681.91;;;;
2020/09/03 05:01:46;;;;;;;3.25;3.05;;;;;;;10.1;100;95681.91;;;;
2020/09/03 05:02:46;;;;;;;3.25;3.05;;;;;;;10.1;100;95681.91;;;;
2020/09/03 05:03:47;;;;;;;3.25;3.05;;;;;;;10.1;100;95681.91;;;;
2020/09/03 05:04:48;;;;;;;3.25;3.05;;;;;;;10.1;100;95681.91;;;;
2020/09/03 05:05:48;;;;;;;3.25;3.05;;;;;;;10.1;100;95681.91;;;;
2020/09/03 05:06:48;;;;;;;3.25;3.05;;;;;;;10.1;100;95681.91;;;;
2020/09/03 05:07:49;;;;;;;3.5;3.2;;;;;;;10.19;100;95708.38;;;;
2020/09/03 05:08:50;;;;;;;3.5;3.2;;;;;;;10.19;100;95708.38;;;;
2020/09/03 05:09:50;;;;;;;3.5;3.2;;;;;;;10.19;100;95708.38;;;;
2020/09/03 05:10:55;;;;;;;3.5;3.2;;;;;;;10.19;100;95708.38;;;;
2020/09/03 05:11:56;;;;;;;3.5;3.2;;;;;;;10.19;100;95708.38;;;;
2020/09/03 05:13:05;;;;;;;3.5;3.2;;;;;;;10.19;100;95708.38;;;;
2020/09/03 05:14:06;;;;;;;3.5;3.2;;;;;;;10.19;100;95708.38;;;;
2020/09/03 05:15:07;;;;;;;3.5;3.2;;;;;;;10.19;100;95708.38;;;;
2020/09/03 05:16:10;;;;;;;3.5;3.2;;;;;;;10.19;100;95708.38;;;;
2020/09/03 05:17:12;;;;;;;3.5;3.2;;;;;;;10.19;100;95708.38;;;;
2020/09/03 05:18:15;;;;;;;3.7;3.3;;;;;;;10.25;100;95706.67;;;;
2020/09/03 05:19:17;;;;;;;3.7;3.3;;;;;;;10.25;100;95706.67;;;;
2020/09/03 05:20:17;;;;;;;3.7;3.3;;;;;;;10.25;100;95706.67;;;;
2020/09/03 05:21:18;;;;;;;3.7;3.3;;;;;;;10.25;100;95706.67;;;;
2020/09/03 05:22:19;;;;;;;3.7;3.3;;;;;;;10.25;100;95706.67;;;;
2020/09/03 05:23:19;;;;;;;3.7;3.3;;;;;;;10.25;100;95706.67;;;;
2020/09/03 05:24:24;;;;;;;3.7;3.3;;;;;;;10.25;100;95706.67;;;;
2020/09/03 05:25:24;;;;;;;3.7;3.3;;;;;;;10.25;100;95706.67;;;;
2020/09/03 05:26:25;;;;;;;3.7;3.3;;;;;;;10.25;100;95706.67;;;;
2020/09/03 05:27:37;;;;;;;3.7;3.3;;;;;;;10.25;100;95706.67;;;;
2020/09/03 05:28:38;;;;;;;3.7;3.3;;;;;;;10.25;100;95706.67;;;;
2020/09/03 05:29:38;;;;;;;3.55;3.25;;;;;;;10.38;100;95708.69;;;;
2020/09/03 05:30:39;;;;;;;3.55;3.25;;;;;;;10.38;100;95708.69;;;;
2020/09/03 05:31:39;;;;;;;3.55;3.25;;;;;;;10.38;100;95708.69;;;;
2020/09/03 05:32:54;;;;;;;3.55;3.25;;;;;;;10.38;100;95708.69;;;;
2020/09/03 05:33:55;;;;;;;3.55;3.25;;;;;;;10.38;100;95708.69;;;;
2020/09/03 05:34:55;;;;;;;3.55;3.25;;;;;;;10.38;100;95708.69;;;;
2020/09/03 05:35:56;;;;;;;3.55;3.25;;;;;;;10.38;100;95708.69;;;;
2020/09/03 05:36:56;;;;;;;3.55;3.25;;;;;;;10.38;100;95708.69;;;;
2020/09/03 05:37:57;;;;;;;3.55;3.25;;;;;;;10.38;100;95708.69;;;;
2020/09/03 05:38:58;;;;;;;3.55;3.25;;;;;;;10.38;100;95708.69;;;;
2020/09/03 05:39:58;;;;;;;3.15;2.85;;;;;;;10.67;100;95710.77;;;;
2020/09/03 05:40:59;;;;;;;3.15;2.85;;;;;;;10.67;100;95710.77;;;;
2020/09/03 05:42:00;;;;;;;3.15;2.85;;;;;;;10.67;100;95710.77;;;;
2020/09/03 05:43:00;;;;;;;3.15;2.85;;;;;;;10.67;100;95710.77;;;;
2020/09/03 05:44:01;;;;;;;3.15;2.85;;;;;;;10.67;100;95710.77;;;;
2020/09/03 05:45:01;;;;;;;3.15;2.85;;;;;;;10.67;100;95710.77;;;;
2020/09/03 05:46:02;;;;;;;3.15;2.85;;;;;;;10.67;100;95710.77;;;;
2020/09/03 05:47:02;;;;;;;3.15;2.85;;;;;;;10.67;100;95710.77;;;;
2020/09/03 05:48:03;;;;;;;3.15;2.85;;;;;;;10.67;100;95710.77;;;;
2020/09/03 05:49:03;;;;;;;3.15;2.85;;;;;;;10.67;100;95710.77;;;;
2020/09/03 05:50:04;;;;;;;3.15;2.85;;;;;;;10.67;100;95710.77;;;;
2020/09/03 05:51:04;;;;;;;3.35;3;;;;;;;11;100;95716.58;;;;
2020/09/03 05:52:05;;;;;;;3.35;3;;;;;;;11;100;95716.58;;;;
2020/09/03 05:53:06;;;;;;;3.35;3;;;;;;;11;100;95716.58;;;;
2020/09/03 05:54:06;;;;;;;3.35;3;;;;;;;11;100;95716.58;;;;
2020/09/03 05:55:07;;;;;;;3.35;3;;;;;;;11;100;95716.58;;;;
2020/09/03 05:56:08;;;;;;;3.35;3;;;;;;;11;100;95716.58;;;;
2020/09/03 05:57:08;;;;;;;3.35;3;;;;;;;11;100;95716.58;;;;
2020/09/03 05:58:09;;;;;;;3.35;3;;;;;;;11;100;95716.58;;;;
2020/09/03 05:59:09;;;;;;;3.35;3;;;;;;;11;100;95716.58;;;;
2020/09/03 06:00:10;;;;;;;3.35;3;;;;;;;11;100;95716.58;;;;
2020/09/03 06:01:10;;;;;;;3.9;3;;;;;;;11.32;100;95735.57;;;;
2020/09/03 06:02:11;;;;;;;3.9;3;;;;;;;11.32;100;95735.57;;;;
2020/09/03 06:03:11;;;;;;;3.9;3;;;;;;;11.32;100;95735.57;;;;
2020/09/03 06:04:12;;;;;;;3.9;3;;;;;;;11.32;100;95735.57;;;;
2020/09/03 06:05:12;;;;;;;3.9;3;;;;;;;11.32;100;95735.57;;;;
2020/09/03 06:06:13;;;;;;;3.9;3;;;;;;;11.32;100;95735.57;;;;
2020/09/03 06:07:13;;;;;;;3.9;3;;;;;;;11.32;100;95735.57;;;;
2020/09/03 06:08:13;;;;;;;3.9;3;;;;;;;11.32;100;95735.57;;;;
2020/09/03 06:09:14;;;;;;;3.9;3;;;;;;;11.32;100;95735.57;;;;
2020/09/03 06:10:14;;;;;;;3.9;3;;;;;;;11.32;100;95735.57;;;;
2020/09/03 06:11:15;;;;;;;3.9;3;;;;;;;11.32;100;95735.57;;;;
2020/09/03 06:12:15;;;;;;;4.25;3.15;;;;;;;11.77;100;95733.15;;;;
2020/09/03 06:13:16;;;;;;;4.25;3.15;;;;;;;11.77;100;95733.15;;;;
2020/09/03 06:14:16;;;;;;;4.25;3.15;;;;;;;11.77;100;95733.15;;;;
2020/09/03 06:15:17;;;;;;;4.25;3.15;;;;;;;11.77;100;95733.15;;;;
2020/09/03 06:16:17;;;;;;;4.25;3.15;;;;;;;11.77;100;95733.15;;;;
2020/09/03 06:17:18;;;;;;;4.25;3.15;;;;;;;11.77;100;95733.15;;;;
2020/09/03 06:18:18;;;;;;;4.25;3.15;;;;;;;11.77;100;95733.15;;;;
2020/09/03 06:19:19;;;;;;;4.25;3.15;;;;;;;11.77;100;95733.15;;;;
2020/09/03 06:20:19;;;;;;;4.25;3.15;;;;;;;11.77;100;95733.15;;;;